Home > Products > Valid Products > TAF

000
FTUS43 KGID 260758 AAA
TAFGRI
TAF AMD
KGRI 260758Z 2608/2706 08011KT P6SM OVC015
     FM261600 08011KT P6SM BKN025
     FM262000 07011KT P6SM BKN035
     FM270000 06006KT P6SM SKC=



000
FTUS43 KGID 260520
TAFGRI
TAF
KGRI 260520Z 2606/2706 08011KT P6SM OVC012
     FM261000 07010KT 3SM BR OVC003
     FM261600 08011KT P6SM OVC010
     FM262000 07011KT P6SM BKN035
     FM270000 06006KT P6SM SKC=



000
FTUS43 KGID 260520
TAFGRI
TAF
KGRI 260520Z 2606/2706 08011KT P6SM OVC012
     FM261000 07010KT 3SM BR OVC003
     FM261600 08011KT P6SM OVC010
     FM262000 07011KT P6SM BKN035
     FM270000 06006KT P6SM SKC=



000
FTUS43 KGID 260520
TAFGRI
TAF
KGRI 260520Z 2606/2706 08011KT P6SM OVC012
     FM261000 07010KT 3SM BR OVC003
     FM261600 08011KT P6SM OVC010
     FM262000 07011KT P6SM BKN035
     FM270000 06006KT P6SM SKC=



000
FTUS43 KGID 260520
TAFGRI
TAF
KGRI 260520Z 2606/2706 08011KT P6SM OVC012
     FM261000 07010KT 3SM BR OVC003
     FM261600 08011KT P6SM OVC010
     FM262000 07011KT P6SM BKN035
     FM270000 06006KT P6SM SKC=



000
FTUS43 KGID 252320
TAFGRI
TAF
KGRI 252320Z 2600/2624 07009KT 5SM BR OVC006
     FM261000 07010KT 3SM BR OVC003
     FM261600 08011KT P6SM OVC010
     FM262100 07011KT P6SM BKN035=



000
FTUS43 KGID 252320
TAFGRI
TAF
KGRI 252320Z 2600/2624 07009KT 5SM BR OVC006
     FM261000 07010KT 3SM BR OVC003
     FM261600 08011KT P6SM OVC010
     FM262100 07011KT P6SM BKN035=



000
FTUS43 KGID 252320
TAFGRI
TAF
KGRI 252320Z 2600/2624 07009KT 5SM BR OVC006
     FM261000 07010KT 3SM BR OVC003
     FM261600 08011KT P6SM OVC010
     FM262100 07011KT P6SM BKN035=



000
FTUS43 KGID 252320
TAFGRI
TAF
KGRI 252320Z 2600/2624 07009KT 5SM BR OVC006
     FM261000 07010KT 3SM BR OVC003
     FM261600 08011KT P6SM OVC010
     FM262100 07011KT P6SM BKN035=



000
FTUS43 KGID 252141 AAA
TAFGRI
TAF AMD
KGRI 252141Z 2522/2618 08011KT 4SM -DZ BR OVC005
     FM261700 08012KT P6SM BKN020=



000
FTUS43 KGID 252141 AAA
TAFGRI
TAF AMD
KGRI 252141Z 2522/2618 08011KT 4SM -DZ BR OVC005
     FM261700 08012KT P6SM BKN020=



000
FTUS43 KGID 251721
TAFGRI
TAF
KGRI 251721Z 2518/2618 04012KT 4SM BR OVC006
      TEMPO 2518/2520 1SM BR OVC004
     FM252100 05012KT P6SM OVC015
     FM260600 08011KT 4SM -DZ BR OVC005
     FM261700 08012KT P6SM BKN020=



000
FTUS43 KGID 251721
TAFGRI
TAF
KGRI 251721Z 2518/2618 04012KT 4SM BR OVC006
      TEMPO 2518/2520 1SM BR OVC004
     FM252100 05012KT P6SM OVC015
     FM260600 08011KT 4SM -DZ BR OVC005
     FM261700 08012KT P6SM BKN020=



000
FTUS43 KGID 251721
TAFGRI
TAF
KGRI 251721Z 2518/2618 04012KT 4SM BR OVC006
      TEMPO 2518/2520 1SM BR OVC004
     FM252100 05012KT P6SM OVC015
     FM260600 08011KT 4SM -DZ BR OVC005
     FM261700 08012KT P6SM BKN020=



000
FTUS43 KGID 251721
TAFGRI
TAF
KGRI 251721Z 2518/2618 04012KT 4SM BR OVC006
      TEMPO 2518/2520 1SM BR OVC004
     FM252100 05012KT P6SM OVC015
     FM260600 08011KT 4SM -DZ BR OVC005
     FM261700 08012KT P6SM BKN020=



000
FTUS43 KGID 251312 AAA
TAFGRI
TAF AMD
KGRI 251312Z 2513/2612 03012KT P6SM BKN005 OVC010
     FM251800 05012KT P6SM BKN020
     FM260600 08011KT 4SM -DZ BR OVC005=



000
FTUS43 KGID 251312 AAA
TAFGRI
TAF AMD
KGRI 251312Z 2513/2612 03012KT P6SM BKN005 OVC010
     FM251800 05012KT P6SM BKN020
     FM260600 08011KT 4SM -DZ BR OVC005=



000
FTUS43 KGID 251312 AAA
TAFGRI
TAF AMD
KGRI 251312Z 2513/2612 03012KT P6SM BKN005 OVC010
     FM251800 05012KT P6SM BKN020
     FM260600 08011KT 4SM -DZ BR OVC005=



000
FTUS43 KGID 251312 AAA
TAFGRI
TAF AMD
KGRI 251312Z 2513/2612 03012KT P6SM BKN005 OVC010
     FM251800 05012KT P6SM BKN020
     FM260600 08011KT 4SM -DZ BR OVC005=



000
FTUS43 KGID 251120
TAFGRI
TAF
KGRI 251120Z 2512/2612 04009KT P6SM SCT010 BKN080
      TEMPO 2512/2514 2SM -SHRA BR OVC004
     FM251800 05011KT P6SM BKN025
     FM260600 08011KT 4SM -DZ BR OVC005=



000
FTUS43 KGID 251120
TAFGRI
TAF
KGRI 251120Z 2512/2612 04009KT P6SM SCT010 BKN080
      TEMPO 2512/2514 2SM -SHRA BR OVC004
     FM251800 05011KT P6SM BKN025
     FM260600 08011KT 4SM -DZ BR OVC005=



000
FTUS43 KGID 250958 AAB
TAFGRI
TAF AMD
KGRI 250958Z 2510/2606 VRB06KT 2SM -RA BR OVC003
     FM251100 VRB06KT 3SM BR OVC009
     FM251400 02011KT P6SM BKN015
     FM260300 08011KT 4SM -DZ BR OVC005=



000
FTUS43 KGID 250958 AAB
TAFGRI
TAF AMD
KGRI 250958Z 2510/2606 VRB06KT 2SM -RA BR OVC003
     FM251100 VRB06KT 3SM BR OVC009
     FM251400 02011KT P6SM BKN015
     FM260300 08011KT 4SM -DZ BR OVC005=



000
FTUS43 KGID 250958 AAB
TAFGRI
TAF AMD
KGRI 250958Z 2510/2606 VRB06KT 2SM -RA BR OVC003
     FM251100 VRB06KT 3SM BR OVC009
     FM251400 02011KT P6SM BKN015
     FM260300 08011KT 4SM -DZ BR OVC005=



000
FTUS43 KGID 250610 AAA
TAFGRI
TAF AMD
KGRI 250610Z 2506/2606 VRB06KT 4SM BR VCTS OVC025CB
     FM250800 35009KT P6SM OVC009
     FM251400 02011KT P6SM BKN015
     FM260300 08011KT 4SM -DZ BR OVC005=



000
FTUS43 KGID 250610 AAA
TAFGRI
TAF AMD
KGRI 250610Z 2506/2606 VRB06KT 4SM BR VCTS OVC025CB
     FM250800 35009KT P6SM OVC009
     FM251400 02011KT P6SM BKN015
     FM260300 08011KT 4SM -DZ BR OVC005=



000
FTUS43 KGID 250520
TAFGRI
TAF
KGRI 250520Z 2506/2606 VRB06KT P6SM VCTS OVC006CB
     FM250800 35009KT P6SM OVC009
     FM251400 02011KT P6SM BKN015
     FM260300 08011KT 4SM -DZ BR OVC005=



000
FTUS43 KGID 250520
TAFGRI
TAF
KGRI 250520Z 2506/2606 VRB06KT P6SM VCTS OVC006CB
     FM250800 35009KT P6SM OVC009
     FM251400 02011KT P6SM BKN015
     FM260300 08011KT 4SM -DZ BR OVC005=



000
FTUS43 KGID 250520
TAFGRI
TAF
KGRI 250520Z 2506/2606 VRB06KT P6SM VCTS OVC006CB
     FM250800 35009KT P6SM OVC009
     FM251400 02011KT P6SM BKN015
     FM260300 08011KT 4SM -DZ BR OVC005=



000
FTUS43 KGID 250520
TAFGRI
TAF
KGRI 250520Z 2506/2606 VRB06KT P6SM VCTS OVC006CB
     FM250800 35009KT P6SM OVC009
     FM251400 02011KT P6SM BKN015
     FM260300 08011KT 4SM -DZ BR OVC005=



000
FTUS43 KGID 242320
TAFGRI
TAF
KGRI 242320Z 2500/2524 15010KT P6SM SCT018 BKN040
     FM250300 12006KT P6SM VCTS OVC025CB
     FM251100 34010KT P6SM OVC012
     FM251900 02012KT P6SM BKN025=



000
FTUS43 KGID 242320
TAFGRI
TAF
KGRI 242320Z 2500/2524 15010KT P6SM SCT018 BKN040
     FM250300 12006KT P6SM VCTS OVC025CB
     FM251100 34010KT P6SM OVC012
     FM251900 02012KT P6SM BKN025=



000
FTUS43 KGID 241734
TAFGRI
TAF
KGRI 241734Z 2418/2518 18010KT P6SM OVC012
      TEMPO 2418/2420 BKN008
     FM242100 15006KT P6SM BKN020
     FM250400 31007KT P6SM VCTS OVC025CB
     FM251000 33010KT P6SM OVC015=



000
FTUS43 KGID 241734
TAFGRI
TAF
KGRI 241734Z 2418/2518 18010KT P6SM OVC012
      TEMPO 2418/2420 BKN008
     FM242100 15006KT P6SM BKN020
     FM250400 31007KT P6SM VCTS OVC025CB
     FM251000 33010KT P6SM OVC015=



000
FTUS43 KGID 241611 AAD
TAFGRI
TAF AMD
KGRI 241611Z 2416/2512 18011KT P6SM OVC010
      TEMPO 2416/2419 4SM BR BKN005
     FM241900 13011KT P6SM BKN025
     FM250300 10010KT P6SM VCTS OVC035CB
     FM250500 34010KT P6SM VCSH OVC025=



000
FTUS43 KGID 241611 AAD
TAFGRI
TAF AMD
KGRI 241611Z 2416/2512 18011KT P6SM OVC010
      TEMPO 2416/2419 4SM BR BKN005
     FM241900 13011KT P6SM BKN025
     FM250300 10010KT P6SM VCTS OVC035CB
     FM250500 34010KT P6SM VCSH OVC025=



000
FTUS43 KGID 241400 AAC
TAFGRI
TAF AMD
KGRI 241400Z 2414/2512 17011KT 6SM BR OVC015
      TEMPO 2414/2416 1SM BR BKN005
     FM241700 13011KT P6SM BKN025
     FM250300 10010KT P6SM VCTS OVC035CB
     FM250500 34010KT P6SM VCSH OVC025=



000
FTUS43 KGID 241304 AAB
TAFGRI
TAF AMD
KGRI 241304Z 2413/2512 17011KT P6SM OVC015
      TEMPO 2413/2416 BKN008
     FM241700 13011KT P6SM BKN025
     FM250300 10010KT P6SM VCTS OVC035CB
     FM250500 34010KT P6SM VCSH OVC025=



000
FTUS43 KGID 241304 AAB
TAFGRI
TAF AMD
KGRI 241304Z 2413/2512 17011KT P6SM OVC015
      TEMPO 2413/2416 BKN008
     FM241700 13011KT P6SM BKN025
     FM250300 10010KT P6SM VCTS OVC035CB
     FM250500 34010KT P6SM VCSH OVC025=



000
FTUS43 KGID 241304 AAB
TAFGRI
TAF AMD
KGRI 241304Z 2413/2512 17011KT P6SM OVC015
      TEMPO 2413/2416 BKN008
     FM241700 13011KT P6SM BKN025
     FM250300 10010KT P6SM VCTS OVC035CB
     FM250500 34010KT P6SM VCSH OVC025=



000
FTUS43 KGID 241304 AAB
TAFGRI
TAF AMD
KGRI 241304Z 2413/2512 17011KT P6SM OVC015
      TEMPO 2413/2416 BKN008
     FM241700 13011KT P6SM BKN025
     FM250300 10010KT P6SM VCTS OVC035CB
     FM250500 34010KT P6SM VCSH OVC025=



000
FTUS43 KGID 241302 AAA
TAFGRI
TAF AMD
KGRI 241302Z 2413/2512 17011KT P6SM OVC015
      TEMPO 2413/2416 BKN010
     FM241700 13011KT P6SM BKN025
     FM250300 10010KT P6SM VCTS OVC035CB
     FM250500 34010KT P6SM VCSH OVC025=



000
FTUS43 KGID 241302 AAA
TAFGRI
TAF AMD
KGRI 241302Z 2413/2512 17011KT P6SM OVC015
      TEMPO 2413/2416 BKN010
     FM241700 13011KT P6SM BKN025
     FM250300 10010KT P6SM VCTS OVC035CB
     FM250500 34010KT P6SM VCSH OVC025=



000
FTUS43 KGID 241302 AAA
TAFGRI
TAF AMD
KGRI 241302Z 2413/2512 17011KT P6SM OVC015
      TEMPO 2413/2416 BKN010
     FM241700 13011KT P6SM BKN025
     FM250300 10010KT P6SM VCTS OVC035CB
     FM250500 34010KT P6SM VCSH OVC025=



000
FTUS43 KGID 241302 AAA
TAFGRI
TAF AMD
KGRI 241302Z 2413/2512 17011KT P6SM OVC015
      TEMPO 2413/2416 BKN010
     FM241700 13011KT P6SM BKN025
     FM250300 10010KT P6SM VCTS OVC035CB
     FM250500 34010KT P6SM VCSH OVC025=



000
FTUS43 KGID 241120
TAFGRI
TAF
KGRI 241120Z 2412/2512 15013KT P6SM SCT015 OVC035
      TEMPO 2412/2416 BKN015
     FM241700 13011KT P6SM BKN025
     FM250300 10010KT P6SM VCTS OVC035CB
     FM250500 34010KT P6SM VCSH OVC025=



000
FTUS43 KGID 241120
TAFGRI
TAF
KGRI 241120Z 2412/2512 15013KT P6SM SCT015 OVC035
      TEMPO 2412/2416 BKN015
     FM241700 13011KT P6SM BKN025
     FM250300 10010KT P6SM VCTS OVC035CB
     FM250500 34010KT P6SM VCSH OVC025=



000
FTUS43 KGID 241120
TAFGRI
TAF
KGRI 241120Z 2412/2512 15013KT P6SM SCT015 OVC035
      TEMPO 2412/2416 BKN015
     FM241700 13011KT P6SM BKN025
     FM250300 10010KT P6SM VCTS OVC035CB
     FM250500 34010KT P6SM VCSH OVC025=



000
FTUS43 KGID 241120
TAFGRI
TAF
KGRI 241120Z 2412/2512 15013KT P6SM SCT015 OVC035
      TEMPO 2412/2416 BKN015
     FM241700 13011KT P6SM BKN025
     FM250300 10010KT P6SM VCTS OVC035CB
     FM250500 34010KT P6SM VCSH OVC025=



000
FTUS43 KGID 240903 AAA
TAFGRI
TAF AMD
KGRI 240903Z 2409/2506 16013KT P6SM SCT015 OVC035
     FM241200 15013KT P6SM OVC025
     FM241800 13011KT P6SM BKN030
     FM250300 08010KT P6SM VCTS OVC035CB=



000
FTUS43 KGID 240903 AAA
TAFGRI
TAF AMD
KGRI 240903Z 2409/2506 16013KT P6SM SCT015 OVC035
     FM241200 15013KT P6SM OVC025
     FM241800 13011KT P6SM BKN030
     FM250300 08010KT P6SM VCTS OVC035CB=



000
FTUS43 KGID 240520
TAFGRI
TAF
KGRI 240520Z 2406/2506 16015G20KT P6SM SCT025 BKN035
     FM240800 16013KT P6SM SCT006 OVC020
     FM241200 15013KT 5SM BR VCSH OVC009
     FM241800 13011KT P6SM BKN025
     FM250300 08010KT P6SM VCTS OVC035CB=



000
FTUS43 KGID 240520
TAFGRI
TAF
KGRI 240520Z 2406/2506 16015G20KT P6SM SCT025 BKN035
     FM240800 16013KT P6SM SCT006 OVC020
     FM241200 15013KT 5SM BR VCSH OVC009
     FM241800 13011KT P6SM BKN025
     FM250300 08010KT P6SM VCTS OVC035CB=



000
FTUS43 KGID 232343
TAFGRI
TAF
KGRI 232343Z 2400/2424 16013G19KT P6SM BKN040
     FM240900 15013KT P6SM BKN022
     FM241100 15013KT 5SM -SHRA BR OVC009
     FM241800 13011KT P6SM BKN015=



000
FTUS43 KGID 232343
TAFGRI
TAF
KGRI 232343Z 2400/2424 16013G19KT P6SM BKN040
     FM240900 15013KT P6SM BKN022
     FM241100 15013KT 5SM -SHRA BR OVC009
     FM241800 13011KT P6SM BKN015=



000
FTUS43 KGID 232343
TAFGRI
TAF
KGRI 232343Z 2400/2424 16013G19KT P6SM BKN040
     FM240900 15013KT P6SM BKN022
     FM241100 15013KT 5SM -SHRA BR OVC009
     FM241800 13011KT P6SM BKN015=



000
FTUS43 KGID 232343
TAFGRI
TAF
KGRI 232343Z 2400/2424 16013G19KT P6SM BKN040
     FM240900 15013KT P6SM BKN022
     FM241100 15013KT 5SM -SHRA BR OVC009
     FM241800 13011KT P6SM BKN015=



000
FTUS43 KGID 231720
TAFGRI
TAF
KGRI 231720Z 2318/2418 16014G22KT P6SM SCT040
     FM232300 14012G18KT P6SM BKN040
     FM240300 13012KT P6SM OVC028
     FM240900 14014KT 3SM BR VCTS OVC012CB
     FM241300 14014KT 2SM -SHRA BR OVC008=



000
FTUS43 KGID 231720
TAFGRI
TAF
KGRI 231720Z 2318/2418 16014G22KT P6SM SCT040
     FM232300 14012G18KT P6SM BKN040
     FM240300 13012KT P6SM OVC028
     FM240900 14014KT 3SM BR VCTS OVC012CB
     FM241300 14014KT 2SM -SHRA BR OVC008=



000
FTUS43 KGID 231120
TAFGRI
TAF
KGRI 231120Z 2312/2412 16008KT P6SM SCT040
     FM231800 16014G19KT P6SM BKN040
     FM240400 15013G22KT P6SM OVC025
     FM240700 16012G19KT P6SM VCTS OVC008CB
     FM240900 15012G18KT 3SM BR VCTS OVC003CB=



000
FTUS43 KGID 231120
TAFGRI
TAF
KGRI 231120Z 2312/2412 16008KT P6SM SCT040
     FM231800 16014G19KT P6SM BKN040
     FM240400 15013G22KT P6SM OVC025
     FM240700 16012G19KT P6SM VCTS OVC008CB
     FM240900 15012G18KT 3SM BR VCTS OVC003CB=



000
FTUS43 KGID 231120
TAFGRI
TAF
KGRI 231120Z 2312/2412 16008KT P6SM SCT040
     FM231800 16014G19KT P6SM BKN040
     FM240400 15013G22KT P6SM OVC025
     FM240700 16012G19KT P6SM VCTS OVC008CB
     FM240900 15012G18KT 3SM BR VCTS OVC003CB=



000
FTUS43 KGID 231120
TAFGRI
TAF
KGRI 231120Z 2312/2412 16008KT P6SM SCT040
     FM231800 16014G19KT P6SM BKN040
     FM240400 15013G22KT P6SM OVC025
     FM240700 16012G19KT P6SM VCTS OVC008CB
     FM240900 15012G18KT 3SM BR VCTS OVC003CB=



    US Dept of Commerce
    National Oceanic and Atmospheric Administration
    National Weather Service
    1325 East West Highway
    Silver Spring, MD 20910
    Page Author: NWS Internet Services Team
Disclaimer
Information Quality
Credits
Glossary
Privacy Policy
Freedom of Information Act (FOIA)
About Us
Career Opportunities